Time;durP1;ratioP1;P1;durP2;ratioP2;P2;SDS_P1;SDS_P2;PMS_P1;PMS_P2;Temp;Humidity;BMP_temperature;BMP_pressure;BME280_temperature;BME280_humidity;BME280_pressure;Samples;Min_cycle;Max_cycle;Signal;HPM_P1;HPM_P2
2023/05/12 00:00:06;;;;;;;4.07;3.63;;;;;;;14.66;83.83;99205.94;413821;23;5287;-81
2023/05/12 00:00:18;;;;;;;4.72;3.65;;;;;;;14.67;83.83;99212.88;409233;23;17842;-81
2023/05/12 00:00:31;;;;;;;6.93;3.80;;;;;;;14.69;83.79;99211.00;411682;23;8646;-80
2023/05/12 00:00:43;;;;;;;6.93;3.78;;;;;;;14.71;83.82;99211.75;415921;23;4401;-81
2023/05/12 00:00:58;;;;;;;5.10;3.70;;;;;;;14.72;83.85;99202.97;415393;23;4478;-81
2023/05/12 00:01:14;;;;;;;7.10;3.90;;;;;;;14.72;83.64;99208.19;412415;23;17582;-81
2023/05/12 00:01:26;;;;;;;6.25;3.65;;;;;;;14.73;83.46;99204.66;411917;23;17747;-81
2023/05/12 00:01:38;;;;;;;5.03;3.70;;;;;;;14.73;83.45;99204.66;416025;23;4430;-81
2023/05/12 00:01:50;;;;;;;5.25;3.75;;;;;;;14.73;83.14;99204.66;415711;23;4524;-81
2023/05/12 00:02:02;;;;;;;5.50;3.90;;;;;;;14.74;83.00;99206.34;412188;23;18397;-81
2023/05/12 00:02:15;;;;;;;6.10;3.90;;;;;;;14.74;83.20;99206.34;416082;23;4553;-81
2023/05/12 00:02:27;;;;;;;5.50;3.75;;;;;;;14.76;83.13;99208.88;412403;23;18387;-81
2023/05/12 00:02:39;;;;;;;5.47;3.50;;;;;;;14.75;82.80;99204.59;415053;23;4520;-81
2023/05/12 00:02:51;;;;;;;5.28;3.60;;;;;;;14.76;83.06;99207.09;412703;23;5044;-81
2023/05/12 00:03:03;;;;;;;5.47;3.60;;;;;;;14.77;82.92;99200.94;415587;23;4477;-82
2023/05/12 00:03:15;;;;;;;4.85;3.50;;;;;;;14.78;82.80;99201.78;415442;23;4509;-82
2023/05/12 00:03:27;;;;;;;5.47;3.43;;;;;;;14.77;82.93;99200.94;411999;23;18133;-81
2023/05/12 00:03:40;;;;;;;4.65;3.40;;;;;;;14.78;82.79;99197.38;415000;23;5104;-81
2023/05/12 00:03:52;;;;;;;4.20;3.53;;;;;;;14.75;82.90;99197.56;410139;23;17921;-81
2023/05/12 00:04:05;;;;;;;4.68;3.72;;;;;;;14.73;82.98;99203.84;413566;23;4446;-81
2023/05/12 00:04:20;;;;;;;5.75;3.70;;;;;;;14.70;83.12;99204.81;410522;23;17861;-81
2023/05/12 00:04:32;;;;;;;6.32;3.63;;;;;;;14.67;83.14;99207.63;409849;23;18319;-81
2023/05/12 00:04:44;;;;;;;6.20;3.63;;;;;;;14.66;83.36;99203.31;413244;23;5163;-82
2023/05/12 00:04:56;;;;;;;6.30;3.70;;;;;;;14.64;83.34;99205.19;411467;23;17867;-81
2023/05/12 00:05:09;;;;;;;7.65;3.90;;;;;;;14.61;83.38;99197.53;415127;23;5227;-82
2023/05/12 00:05:21;;;;;;;9.02;3.97;;;;;;;14.60;83.57;99202.81;411908;23;9097;-81
2023/05/12 00:05:33;;;;;;;7.20;4.05;;;;;;;14.58;83.42;99206.34;415293;23;4972;-81
2023/05/12 00:05:45;;;;;;;7.63;3.90;;;;;;;14.59;83.57;99207.22;413408;23;4608;-81
2023/05/12 00:05:59;;;;;;;5.68;3.60;;;;;;;14.60;83.58;99203.66;409037;23;18873;-81
2023/05/12 00:06:11;;;;;;;4.47;3.40;;;;;;;14.58;83.80;99201.13;410734;23;7939;-81
2023/05/12 00:06:23;;;;;;;4.38;3.67;;;;;;;14.56;83.61;99202.16;412527;23;4993;-81
2023/05/12 00:06:35;;;;;;;5.88;3.88;;;;;;;14.55;83.67;99205.69;413235;23;4635;-81
2023/05/12 00:06:47;;;;;;;6.05;4.03;;;;;;;14.52;83.95;99200.59;409903;23;18753;-81
2023/05/12 00:06:59;;;;;;;5.78;3.78;;;;;;;14.52;83.88;99206.66;410975;23;4462;-81
2023/05/12 00:07:11;;;;;;;5.45;3.70;;;;;;;14.52;84.17;99200.59;407882;23;9866;-81
2023/05/12 00:07:24;;;;;;;4.93;3.60;;;;;;;14.51;84.04;99204.16;411755;23;5431;-81
2023/05/12 00:07:36;;;;;;;4.75;3.65;;;;;;;14.51;84.10;99204.16;408775;23;18062;-81
2023/05/12 00:07:48;;;;;;;4.53;3.50;;;;;;;14.53;84.14;99207.53;412879;23;4540;-82
2023/05/12 00:08:00;;;;;;;3.85;3.40;;;;;;;14.55;83.96;99205.69;412888;23;5241;-81
2023/05/12 00:08:12;;;;;;;4.40;3.50;;;;;;;14.55;84.14;99206.50;409952;23;17840;-81
2023/05/12 00:08:24;;;;;;;6.88;3.67;;;;;;;14.56;84.18;99203.00;414055;23;4436;-82
2023/05/12 00:08:37;;;;;;;6.40;3.78;;;;;;;14.58;84.16;99197.69;410462;23;17801;-81
2023/05/12 00:08:49;;;;;;;6.40;3.80;;;;;;;14.58;84.09;99205.53;415067;23;5179;-81
2023/05/12 00:09:01;;;;;;;5.80;3.70;;;;;;;14.58;84.06;99205.53;413044;23;6241;-81
2023/05/12 00:09:16;;;;;;;6.10;3.63;;;;;;;14.59;84.10;99199.38;414230;23;9245;-81
2023/05/12 00:09:28;;;;;;;4.88;3.65;;;;;;;14.58;84.06;99202.91;415762;23;17842;-81
2023/05/12 00:09:43;;;;;;;4.68;3.30;;;;;;;14.58;84.16;99205.53;413900;23;4458;-81
2023/05/12 00:09:57;;;;;;;7.53;3.33;;;;;;;14.59;84.08;99199.38;412068;23;17757;-81
2023/05/12 00:10:10;;;;;;;8.40;3.60;;;;;;;14.60;84.00;99203.66;414676;23;4799;-81
2023/05/12 00:10:22;;;;;;;6.72;3.50;;;;;;;14.58;84.21;99201.13;412323;23;18561;-81
2023/05/12 00:10:37;;;;;;;5.05;3.70;;;;;;;14.60;84.14;99197.59;412210;23;9919;-81
2023/05/12 00:10:49;;;;;;;6.93;4.25;;;;;;;14.59;83.92;99202.00;417128;23;5172;-81
2023/05/12 00:11:01;;;;;;;6.80;4.00;;;;;;;14.59;83.72;99202.00;412919;23;7780;-81
2023/05/12 00:11:13;;;;;;;5.20;3.90;;;;;;;14.60;83.78;99202.81;413831;23;4583;-82
2023/05/12 00:11:25;;;;;;;5.00;3.75;;;;;;;14.61;83.82;99199.28;412998;23;4518;-81
2023/05/12 00:11:37;;;;;;;4.88;3.72;;;;;;;14.61;83.67;99204.50;410193;23;17703;-82
2023/05/12 00:11:49;;;;;;;7.47;3.67;;;;;;;14.60;83.47;99203.66;414163;23;4453;-81
2023/05/12 00:12:02;;;;;;;7.35;3.50;;;;;;;14.61;83.64;99205.38;409981;23;18042;-81
2023/05/12 00:12:14;;;;;;;8.48;3.75;;;;;;;14.62;83.53;99196.56;413403;23;4484;-81
2023/05/12 00:12:26;;;;;;;6.38;3.67;;;;;;;14.64;83.36;99199.09;410892;23;15264;-82
2023/05/12 00:12:38;;;;;;;4.97;3.58;;;;;;;14.64;83.42;99199.09;413465;23;4447;-81
2023/05/12 00:12:50;;;;;;;4.50;3.50;;;;;;;14.64;83.41;99199.94;414311;23;5206;-81
2023/05/12 00:13:02;;;;;;;5.07;3.50;;;;;;;14.64;83.62;99205.19;410008;23;17978;-81
2023/05/12 00:13:14;;;;;;;6.07;3.50;;;;;;;14.65;83.62;99196.41;414008;23;5263;-81
2023/05/12 00:13:29;;;;;;;5.55;3.70;;;;;;;14.65;83.57;99199.03;412160;23;18091;-81
2023/05/12 00:13:41;;;;;;;4.13;3.70;;;;;;;14.64;83.48;99199.94;410878;23;5264;-80
2023/05/12 00:13:54;;;;;;;3.90;3.50;;;;;;;14.62;83.67;99201.81;414857;23;5190;-81
2023/05/12 00:14:06;;;;;;;4.38;3.42;;;;;;;14.63;84.00;99198.28;410677;23;5249;-81
2023/05/12 00:14:19;;;;;;;4.80;3.45;;;;;;;14.65;83.85;99192.94;413802;23;4431;-81
2023/05/12 00:14:30;;;;;;;4.72;3.50;;;;;;;14.66;83.77;99202.47;412527;23;5074;-81
2023/05/12 00:14:42;;;;;;;5.30;3.63;;;;;;;14.64;83.60;99192.09;409989;23;18191;-81
2023/05/12 00:14:55;;;;;;;4.88;4.00;;;;;;;14.65;83.70;99193.81;413789;23;4493;-81
2023/05/12 00:15:07;;;;;;;5.00;3.70;;;;;;;14.65;83.71;99193.81;409675;23;19138;-82
2023/05/12 00:15:20;;;;;;;4.75;3.60;;;;;;;14.63;83.71;99198.28;411451;23;4825;-82
2023/05/12 00:15:31;;;;;;;3.83;3.42;;;;;;;14.64;83.86;99194.72;408018;23;16880;-81
2023/05/12 00:15:43;;;;;;;6.97;3.60;;;;;;;14.62;84.15;99196.56;412587;23;4437;-81
2023/05/12 00:15:57;;;;;;;7.50;3.75;;;;;;;14.64;84.24;99199.94;413415;23;4455;-81
2023/05/12 00:16:10;;;;;;;7.35;3.55;;;;;;;14.65;84.07;99196.41;411467;23;18261;-81
2023/05/12 00:16:22;;;;;;;4.25;3.28;;;;;;;14.65;84.02;99199.03;412089;23;18715;-81
2023/05/12 00:16:34;;;;;;;3.90;3.33;;;;;;;14.66;83.91;99203.31;415268;23;4433;-82
2023/05/12 00:16:50;;;;;;;4.20;3.20;;;;;;;14.68;83.99;99198.00;411867;23;9135;-80
2023/05/12 00:17:05;;;;;;;4.80;3.45;;;;;;;14.68;84.00;99195.38;410643;23;18039;-81
2023/05/12 00:17:17;;;;;;;4.22;3.60;;;;;;;14.68;83.92;99201.47;411908;23;18058;-80
2023/05/12 00:17:29;;;;;;;3.90;3.50;;;;;;;14.69;84.00;99197.06;415412;23;5155;-81
2023/05/12 00:17:41;;;;;;;4.85;3.50;;;;;;;14.68;84.02;99198.84;412172;23;4571;-81
2023/05/12 00:17:53;;;;;;;6.18;3.60;;;;;;;14.65;84.00;99203.41;415243;23;4466;-81
2023/05/12 00:18:05;;;;;;;5.20;3.63;;;;;;;14.60;83.94;99187.97;415529;23;4791;-81
2023/05/12 00:18:17;;;;;;;4.35;3.60;;;;;;;14.60;84.11;99203.66;411198;23;19966;-81
2023/05/12 00:18:29;;;;;;;4.13;3.55;;;;;;;14.60;84.27;99192.38;415027;23;4464;-82
2023/05/12 00:18:41;;;;;;;4.05;3.53;;;;;;;14.57;84.16;99196.00;412264;23;8682;-81
2023/05/12 00:18:53;;;;;;;4.13;3.58;;;;;;;14.56;84.34;99191.69;416049;23;4403;-82
2023/05/12 00:19:06;;;;;;;5.13;3.70;;;;;;;14.55;84.24;99190.81;416150;23;4445;-82
2023/05/12 00:19:19;;;;;;;4.72;3.60;;;;;;;14.56;84.29;99196.91;412344;23;18635;-81
2023/05/12 00:19:32;;;;;;;4.90;3.40;;;;;;;14.56;84.15;99197.75;415367;23;4513;-81
2023/05/12 00:19:44;;;;;;;5.72;3.33;;;;;;;14.56;84.17;99195.13;411868;23;17768;-81
2023/05/12 00:19:56;;;;;;;5.70;3.40;;;;;;;14.57;84.17;99190.78;409883;23;9192;-80
2023/05/12 00:20:09;;;;;;;4.82;3.38;;;;;;;14.57;84.22;99190.78;411722;23;4626;-80
2023/05/12 00:20:21;;;;;;;4.05;3.40;;;;;;;14.57;84.08;99193.38;411592;23;4463;-81
2023/05/12 00:20:33;;;;;;;3.95;3.35;;;;;;;14.57;84.04;99194.22;408163;23;19475;-81
2023/05/12 00:20:45;;;;;;;4.32;3.20;;;;;;;14.57;83.99;99194.22;411621;23;4948;-81
2023/05/12 00:20:57;;;;;;;3.80;3.10;;;;;;;14.56;83.90;99189.91;408553;23;18002;-81
2023/05/12 00:21:11;;;;;;;4.05;3.20;;;;;;;14.57;83.98;99198.63;412585;23;4438;-82
2023/05/12 00:21:23;;;;;;;4.68;3.20;;;;;;;14.56;83.98;99192.53;410454;23;17879;-81
2023/05/12 00:21:35;;;;;;;5.13;3.28;;;;;;;14.56;84.08;99194.31;414103;23;4463;-81
2023/05/12 00:21:47;;;;;;;4.93;3.30;;;;;;;14.55;84.16;99192.59;410308;23;18050;-82
2023/05/12 00:21:59;;;;;;;4.22;3.20;;;;;;;14.56;84.10;99191.69;414501;23;4576;-81
2023/05/12 00:22:11;;;;;;;3.88;3.20;;;;;;;14.55;84.23;99193.44;415586;23;4668;-81
2023/05/12 00:22:23;;;;;;;3.75;3.33;;;;;;;14.54;84.28;99190.91;412170;23;17797;-78
2023/05/12 00:22:35;;;;;;;4.35;3.53;;;;;;;14.53;84.39;99191.84;413203;23;4504;-78
2023/05/12 00:22:47;;;;;;;4.32;3.53;;;;;;;14.53;84.34;99197.06;409767;23;18017;-78
2023/05/12 00:22:59;;;;;;;4.07;3.60;;;;;;;14.51;84.50;99189.31;411576;23;5319;-77
2023/05/12 00:23:11;;;;;;;4.60;3.63;;;;;;;14.52;84.54;99195.38;411392;23;10664;-78
2023/05/12 00:23:23;;;;;;;5.53;3.67;;;;;;;14.53;84.41;99197.06;410619;23;17733;-79
2023/05/12 00:23:35;;;;;;;6.93;3.60;;;;;;;14.53;84.60;99186.63;413480;23;4991;-78
2023/05/12 00:23:47;;;;;;;6.20;3.50;;;;;;;14.53;84.59;99197.06;409592;23;18739;-78
2023/05/12 00:23:59;;;;;;;5.97;3.65;;;;;;;14.51;84.44;99193.72;410651;23;4426;-79
2023/05/12 00:24:11;;;;;;;5.53;3.80;;;;;;;14.50;84.58;99189.38;411671;23;4491;-79
2023/05/12 00:24:23;;;;;;;5.45;3.88;;;;;;;14.50;84.56;99194.63;407480;23;18324;-79
2023/05/12 00:24:35;;;;;;;5.03;3.80;;;;;;;14.48;84.54;99188.63;410391;23;4432;-79
2023/05/12 00:24:46;;;;;;;5.35;3.85;;;;;;;14.50;84.75;99192.00;407809;23;16343;-79
2023/05/12 00:24:58;;;;;;;5.35;3.95;;;;;;;14.49;84.57;99185.09;411849;23;4664;-78
2023/05/12 00:25:10;;;;;;;5.22;3.95;;;;;;;14.49;84.76;99190.34;413071;23;5197;-79
2023/05/12 00:25:22;;;;;;;4.28;3.63;;;;;;;14.47;84.65;99190.41;410061;23;6561;-79
2023/05/12 00:25:34;;;;;;;4.07;3.53;;;;;;;14.46;84.75;99196.56;413334;23;4465;-79
2023/05/12 00:25:46;;;;;;;3.97;3.58;;;;;;;14.46;84.82;99195.72;410052;23;10068;-79
2023/05/12 00:25:58;;;;;;;4.80;3.63;;;;;;;14.44;84.79;99192.34;413968;23;4530;-79
2023/05/12 00:26:10;;;;;;;5.90;3.88;;;;;;;14.45;84.79;99197.50;413888;23;5204;-78
2023/05/12 00:26:22;;;;;;;7.13;3.95;;;;;;;14.45;84.76;99191.44;410255;23;18628;-79
2023/05/12 00:26:34;;;;;;;8.02;3.90;;;;;;;14.46;84.70;99195.72;413085;23;5207;-78
2023/05/12 00:26:47;;;;;;;9.65;3.80;;;;;;;14.43;84.93;99188.03;408950;23;8340;-79
2023/05/12 00:26:59;;;;;;;8.20;3.80;;;;;;;14.46;84.85;99198.34;413258;23;5188;-79
2023/05/12 00:27:12;;;;;;;6.95;3.92;;;;;;;14.45;84.64;99192.28;409489;23;10114;-78
2023/05/12 00:27:24;;;;;;;6.90;3.92;;;;;;;14.45;84.55;99189.66;413005;23;4468;-79
2023/05/12 00:27:36;;;;;;;6.95;3.92;;;;;;;14.46;85.01;99195.72;410457;23;9956;-79
2023/05/12 00:27:48;;;;;;;7.60;3.90;;;;;;;14.47;85.03;99189.56;415338;23;5606;-79
2023/05/12 00:28:00;;;;;;;6.40;4.00;;;;;;;14.49;84.84;99199.00;414962;23;4664;-78
2023/05/12 00:28:12;;;;;;;6.82;4.03;;;;;;;14.50;84.93;99197.22;411498;23;18793;-78
2023/05/12 00:28:24;;;;;;;6.78;4.03;;;;;;;14.47;85.12;99190.41;416114;23;4474;-79
2023/05/12 00:28:36;;;;;;;5.32;4.10;;;;;;;14.49;85.04;99193.78;412846;23;10203;-79
2023/05/12 00:28:48;;;;;;;4.45;4.00;;;;;;;14.51;84.91;99194.53;414248;23;17598;-78
2023/05/12 00:29:00;;;;;;;5.10;3.97;;;;;;;14.51;84.78;99193.72;415934;23;5346;-78
2023/05/12 00:29:12;;;;;;;6.32;3.90;;;;;;;14.54;84.84;99198.75;412068;23;17928;-78
2023/05/12 00:29:24;;;;;;;6.25;3.80;;;;;;;14.54;84.71;99188.28;415672;23;4421;-78
2023/05/12 00:29:36;;;;;;;5.05;3.65;;;;;;;14.55;84.72;99190.00;415488;23;4623;-79
2023/05/12 00:29:48;;;;;;;4.78;3.60;;;;;;;14.55;84.63;99190.81;411217;23;19022;-77
2023/05/12 00:30:00;;;;;;;4.00;3.60;;;;;;;14.57;84.70;99198.63;415134;23;4439;-77
2023/05/12 00:30:12;;;;;;;4.10;3.70;;;;;;;14.57;84.46;99191.59;411962;23;16532;-77
2023/05/12 00:30:24;;;;;;;5.15;3.70;;;;;;;14.59;84.41;99196.75;414842;23;4461;-79
2023/05/12 00:30:36;;;;;;;6.90;3.72;;;;;;;14.60;84.44;99198.44;414131;23;4533;-78
2023/05/12 00:30:48;;;;;;;6.55;3.72;;;;;;;14.62;84.48;99193.13;412882;23;18127;-79
2023/05/12 00:31:02;;;;;;;5.85;3.67;;;;;;;14.62;84.54;99196.56;414838;23;5104;-79
2023/05/12 00:31:14;;;;;;;5.60;3.60;;;;;;;14.63;84.40;99193.03;411715;23;18084;-78
2023/05/12 00:31:28;;;;;;;4.40;3.80;;;;;;;14.63;84.41;99187.81;412018;23;15979;-79
2023/05/12 00:31:40;;;;;;;4.10;3.70;;;;;;;14.64;84.36;99194.72;412667;23;4978;-79
2023/05/12 00:31:54;;;;;;;3.97;3.58;;;;;;;14.64;84.47;99194.72;411517;23;18214;-78
2023/05/12 00:32:07;;;;;;;4.43;3.58;;;;;;;14.63;84.53;99195.66;415740;23;4429;-78
2023/05/12 00:32:19;;;;;;;4.35;3.50;;;;;;;14.65;84.73;99196.41;411676;23;19296;-78
2023/05/12 00:32:31;;;;;;;3.90;3.40;;;;;;;14.65;84.50;99191.19;415002;23;5680;-79
2023/05/12 00:32:43;;;;;;;3.85;3.40;;;;;;;14.65;84.65;99183.34;411826;23;18957;-79
2023/05/12 00:32:55;;;;;;;3.67;3.20;;;;;;;14.66;84.66;99192.84;414786;23;4402;-79
2023/05/12 00:33:07;;;;;;;5.35;3.40;;;;;;;14.66;84.66;99189.41;410408;23;18129;-79
2023/05/12 00:33:19;;;;;;;6.15;3.60;;;;;;;14.65;84.77;99190.31;413133;23;4468;-79
2023/05/12 00:33:31;;;;;;;6.00;3.78;;;;;;;14.66;84.39;99192.00;413623;23;6177;-79
2023/05/12 00:33:43;;;;;;;4.20;3.53;;;;;;;14.65;84.53;99190.31;410696;23;18363;-79
2023/05/12 00:33:55;;;;;;;3.58;3.28;;;;;;;14.64;84.57;99189.47;415667;23;4635;-79
2023/05/12 00:34:07;;;;;;;3.80;3.40;;;;;;;14.65;84.52;99185.94;411785;23;19281;-78
2023/05/12 00:34:19;;;;;;;4.22;3.47;;;;;;;14.65;84.56;99191.19;415304;23;5243;-79
2023/05/12 00:34:31;;;;;;;4.57;3.30;;;;;;;14.65;84.52;99191.19;415158;23;4432;-79
2023/05/12 00:34:43;;;;;;;4.43;3.10;;;;;;;14.65;84.41;99198.16;411803;23;18667;-79
2023/05/12 00:34:56;;;;;;;3.97;3.05;;;;;;;14.66;84.30;99187.63;415061;23;5051;-79
2023/05/12 00:35:08;;;;;;;3.90;3.17;;;;;;;14.67;84.35;99193.69;412171;23;18109;-77
2023/05/12 00:35:20;;;;;;;3.80;3.30;;;;;;;14.67;84.13;99194.56;415375;23;4929;-79
2023/05/12 00:35:32;;;;;;;4.00;3.50;;;;;;;14.67;84.13;99193.69;412071;23;18522;-78
2023/05/12 00:35:44;;;;;;;4.68;3.65;;;;;;;14.67;84.13;99193.69;415455;23;4421;-78
2023/05/12 00:35:59;;;;;;;4.57;3.58;;;;;;;14.68;84.05;99193.59;414277;23;9108;-78
2023/05/12 00:36:11;;;;;;;4.97;3.42;;;;;;;14.69;83.87;99189.22;413139;23;17577;-79
2023/05/12 00:36:23;;;;;;;5.05;3.50;;;;;;;14.69;83.82;99192.69;409883;23;18437;-79
2023/05/12 00:36:35;;;;;;;5.80;3.47;;;;;;;14.69;83.74;99189.22;412684;23;5092;-79
2023/05/12 00:36:47;;;;;;;6.20;3.50;;;;;;;14.70;83.62;99188.28;409586;23;18203;-79
2023/05/12 00:36:59;;;;;;;5.10;3.60;;;;;;;14.69;83.53;99186.59;411966;23;4500;-79
2023/05/12 00:37:11;;;;;;;6.57;3.72;;;;;;;14.64;83.54;99184.25;413078;23;4619;-78
2023/05/12 00:37:23;;;;;;;6.20;3.80;;;;;;;14.62;83.46;99191.34;409782;23;18375;-79
2023/05/12 00:37:35;;;;;;;5.80;3.80;;;;;;;14.60;83.62;99187.97;412911;23;5158;-78
2023/05/12 00:37:47;;;;;;;5.35;3.88;;;;;;;14.60;83.71;99192.38;410111;23;9069;-79
2023/05/12 00:37:59;;;;;;;5.00;3.67;;;;;;;14.61;83.65;99189.66;413823;23;5936;-78
2023/05/12 00:38:11;;;;;;;4.55;3.78;;;;;;;14.60;83.67;99187.97;414917;23;4595;-78
2023/05/12 00:38:23;;;;;;;4.60;3.92;;;;;;;14.63;83.61;99185.19;411693;23;18170;-79
2023/05/12 00:38:36;;;;;;;4.75;3.80;;;;;;;14.64;83.60;99189.47;415680;23;5234;-78
2023/05/12 00:38:48;;;;;;;4.70;3.78;;;;;;;14.60;83.46;99187.13;411455;23;18118;-77
2023/05/12 00:39:00;;;;;;;4.85;3.70;;;;;;;14.61;83.44;99192.28;415259;23;4551;-77
2023/05/12 00:39:12;;;;;;;4.47;3.75;;;;;;;14.61;83.53;99189.66;412043;23;16046;-78
2023/05/12 00:39:24;;;;;;;4.00;3.60;;;;;;;14.60;83.39;99187.13;415178;23;4906;-78
2023/05/12 00:39:36;;;;;;;4.05;3.65;;;;;;;14.59;83.52;99183.69;415717;23;4903;-78
2023/05/12 00:39:48;;;;;;;4.63;3.70;;;;;;;14.58;83.51;99189.84;411798;23;18672;-79
2023/05/12 00:40:00;;;;;;;5.57;3.65;;;;;;;14.57;83.51;99186.38;415036;23;5167;-78
2023/05/12 00:40:12;;;;;;;5.32;3.33;;;;;;;14.59;83.50;99181.06;411721;23;18105;-79
2023/05/12 00:40:24;;;;;;;4.72;3.40;;;;;;;14.59;83.75;99186.31;415358;23;4952;-78
2023/05/12 00:40:36;;;;;;;3.65;3.35;;;;;;;14.60;83.61;99187.13;413769;23;9348;-79
2023/05/12 00:40:48;;;;;;;3.70;3.40;;;;;;;14.60;83.82;99185.34;413146;23;17402;-78
2023/05/12 00:41:00;;;;;;;3.72;3.30;;;;;;;14.61;83.76;99194.03;414852;23;4438;-78
2023/05/12 00:41:12;;;;;;;4.10;3.47;;;;;;;14.61;83.75;99184.44;410031;23;18124;-78
2023/05/12 00:41:24;;;;;;;4.00;3.60;;;;;;;14.61;83.94;99184.44;413271;23;4489;-78
2023/05/12 00:41:36;;;;;;;3.97;3.55;;;;;;;14.61;83.98;99194.91;412576;23;4488;-78
2023/05/12 00:41:57;;;;;;;3.80;3.35;;;;;;;14.60;84.01;99187.97;410573;23;18231;-78
2023/05/12 00:42:10;;;;;;;4.00;3.58;;;;;;;14.59;84.03;99188.91;410213;23;17201;-79
2023/05/12 00:42:22;;;;;;;4.22;3.63;;;;;;;14.58;84.09;99189.84;409817;23;18561;-78
2023/05/12 00:42:34;;;;;;;3.88;3.42;;;;;;;14.57;83.81;99183.75;413807;23;4498;-78
2023/05/12 00:42:46;;;;;;;4.18;3.33;;;;;;;14.57;84.06;99183.75;410426;23;4934;-78
2023/05/12 00:42:58;;;;;;;5.35;3.38;;;;;;;14.57;83.96;99188.16;414643;23;4448;-79
2023/05/12 00:43:10;;;;;;;6.00;3.47;;;;;;;14.56;84.08;99189.06;415809;23;5032;-79
2023/05/12 00:43:22;;;;;;;6.05;3.53;;;;;;;14.56;83.88;99191.69;414003;23;17960;-79
2023/05/12 00:43:34;;;;;;;4.65;3.53;;;;;;;14.55;83.99;99184.75;417075;23;4492;-78
2023/05/12 00:43:47;;;;;;;4.78;3.60;;;;;;;14.52;83.90;99185.75;414449;23;4475;-79
2023/05/12 00:43:58;;;;;;;6.00;3.58;;;;;;;14.51;83.88;99183.25;415795;23;5077;-78
2023/05/12 00:44:11;;;;;;;5.18;3.53;;;;;;;14.50;83.99;99181.53;415592;23;4932;-78
2023/05/12 00:44:23;;;;;;;5.25;3.65;;;;;;;14.49;84.02;99180.72;412319;23;18402;-79
2023/05/12 00:44:35;;;;;;;4.00;3.60;;;;;;;14.48;84.06;99181.63;415933;23;4898;-78
2023/05/12 00:44:47;;;;;;;3.83;3.40;;;;;;;14.47;84.19;99185.19;411704;23;19389;-79
2023/05/12 00:44:59;;;;;;;4.10;3.50;;;;;;;14.47;84.25;99181.72;415298;23;4735;-79
2023/05/12 00:45:11;;;;;;;4.00;3.50;;;;;;;14.46;84.09;99187.88;414015;23;4763;-79
2023/05/12 00:45:23;;;;;;;4.25;3.47;;;;;;;14.46;84.29;99185.25;413546;23;18854;-78
2023/05/12 00:45:36;;;;;;;3.90;3.40;;;;;;;14.45;84.28;99183.59;415610;23;4427;-79
2023/05/12 00:45:48;;;;;;;3.50;3.20;;;;;;;14.44;84.24;99177.50;409598;23;17879;-77
2023/05/12 00:46:01;;;;;;;3.53;3.22;;;;;;;14.44;84.16;99181.88;412961;23;4490;-78
2023/05/12 00:46:13;;;;;;;5.75;3.60;;;;;;;14.41;84.35;99188.16;411292;23;18999;-79
2023/05/12 00:46:26;;;;;;;5.50;3.55;;;;;;;14.39;84.30;99177.75;415417;23;5366;-79
2023/05/12 00:46:38;;;;;;;4.03;3.42;;;;;;;14.39;84.18;99185.59;411742;23;18230;-77
2023/05/12 00:46:51;;;;;;;3.58;3.10;;;;;;;14.38;84.34;99181.28;415804;23;4433;-77
2023/05/12 00:47:04;;;;;;;3.65;3.17;;;;;;;14.38;84.20;99183.91;411711;23;19319;-79
2023/05/12 00:47:18;;;;;;;4.05;3.65;;;;;;;14.38;84.40;99183.91;414707;23;4454;-78
2023/05/12 00:47:31;;;;;;;4.22;3.80;;;;;;;14.37;84.43;99179.63;413056;23;16435;-78
2023/05/12 00:47:45;;;;;;;4.93;3.67;;;;;;;14.38;84.62;99183.91;412102;23;18226;-77
2023/05/12 00:47:57;;;;;;;4.82;3.67;;;;;;;14.37;84.62;99182.22;412458;23;18280;-79
2023/05/12 00:48:09;;;;;;;4.10;3.70;;;;;;;14.37;84.60;99184.84;415827;23;4420;-78
2023/05/12 00:48:22;;;;;;;4.05;3.65;;;;;;;14.35;84.61;99186.72;413384;23;9352;-79
2023/05/12 00:48:35;;;;;;;3.90;3.50;;;;;;;14.31;84.68;99179.97;413889;23;18943;-79
2023/05/12 00:48:47;;;;;;;4.25;3.70;;;;;;;14.33;85.02;99179.88;412366;23;9487;-78
2023/05/12 00:49:00;;;;;;;4.68;3.80;;;;;;;14.31;84.96;99187.81;414384;23;4400;-79
2023/05/12 00:49:12;;;;;;;4.60;3.58;;;;;;;14.31;84.82;99181.75;412026;23;9643;-79
2023/05/12 00:49:25;;;;;;;5.75;3.70;;;;;;;14.30;84.74;99180.88;415373;23;4444;-77
2023/05/12 00:49:41;;;;;;;7.47;4.05;;;;;;;14.31;84.86;99181.75;410381;23;18078;-79
2023/05/12 00:49:53;;;;;;;5.75;3.92;;;;;;;14.31;84.91;99182.56;409910;23;18227;-78
2023/05/12 00:50:07;;;;;;;4.30;3.88;;;;;;;14.31;84.94;99177.34;413724;23;4478;-78
2023/05/12 00:50:19;;;;;;;4.68;3.88;;;;;;;14.30;85.06;99182.66;409821;23;18342;-78
2023/05/12 00:50:33;;;;;;;5.35;4.10;;;;;;;14.29;84.85;99179.19;409561;23;9786;-77
2023/05/12 00:50:45;;;;;;;5.32;4.30;;;;;;;14.29;85.06;99183.59;413478;23;5080;-79
2023/05/12 00:50:58;;;;;;;6.35;4.10;;;;;;;14.29;84.97;99179.19;412363;23;9033;-78
2023/05/12 00:51:11;;;;;;;5.53;3.83;;;;;;;14.30;84.98;99178.25;415124;23;5459;-79
2023/05/12 00:51:25;;;;;;;5.38;4.03;;;;;;;14.32;85.11;99186.84;411683;23;18205;-78
2023/05/12 00:51:38;;;;;;;5.60;4.05;;;;;;;14.31;84.92;99177.34;412099;23;9430;-78
2023/05/12 00:51:50;;;;;;;4.88;4.00;;;;;;;14.33;84.99;99185.13;415723;23;4437;-78
2023/05/12 00:52:02;;;;;;;6.70;4.13;;;;;;;14.31;85.29;99185.19;412174;23;9627;-77
2023/05/12 00:52:14;;;;;;;7.82;4.07;;;;;;;14.30;85.19;99180.88;415875;23;4489;-78
2023/05/12 00:52:26;;;;;;;7.25;4.20;;;;;;;14.31;85.44;99179.97;415779;23;5207;-77
2023/05/12 00:52:38;;;;;;;5.85;4.40;;;;;;;14.31;85.27;99177.34;412596;23;18099;-78
2023/05/12 00:52:51;;;;;;;4.88;4.35;;;;;;;14.29;85.62;99181.81;416140;23;4975;-76
2023/05/12 00:53:03;;;;;;;5.13;3.92;;;;;;;14.31;85.53;99184.34;412148;23;18196;-78
2023/05/12 00:53:15;;;;;;;5.85;4.07;;;;;;;14.30;85.56;99183.50;414230;23;4937;-78
2023/05/12 00:53:27;;;;;;;5.60;4.20;;;;;;;14.29;85.48;99173.13;411706;23;4584;-78
2023/05/12 00:53:52;;;;;;;7.20;4.50;;;;;;;14.28;85.58;99187.97;411878;23;17603;-79
2023/05/12 00:54:04;;;;;;;7.28;4.25;;;;;;;14.27;85.54;99186.28;415683;23;4968;-79
2023/05/12 00:54:16;;;;;;;6.85;3.88;;;;;;;14.27;85.48;99183.69;415653;23;4466;-78
2023/05/12 00:54:29;;;;;;;5.68;3.97;;;;;;;14.30;85.52;99180.88;411797;23;18460;-79
2023/05/12 00:54:42;;;;;;;7.25;4.13;;;;;;;14.29;85.79;99184.44;415270;23;4492;-79
2023/05/12 00:54:54;;;;;;;6.57;4.00;;;;;;;14.32;85.52;99181.63;411741;23;17984;-77
2023/05/12 00:55:07;;;;;;;6.43;4.15;;;;;;;14.32;85.35;99179.03;415508;23;4418;-79
2023/05/12 00:55:19;;;;;;;5.35;4.13;;;;;;;14.33;85.52;99183.34;412180;23;18425;-79
2023/05/12 00:55:32;;;;;;;5.28;3.92;;;;;;;14.34;85.21;99179.78;415989;23;5031;-79
2023/05/12 00:55:44;;;;;;;5.93;3.88;;;;;;;14.36;85.33;99180.53;411737;23;18824;-79
2023/05/12 00:55:56;;;;;;;6.38;3.95;;;;;;;14.37;85.09;99186.63;415502;23;4775;-78
2023/05/12 00:56:09;;;;;;;5.15;3.95;;;;;;;14.37;85.14;99181.41;411600;23;19092;-78
2023/05/12 00:56:22;;;;;;;4.15;3.75;;;;;;;14.37;85.19;99182.22;415149;23;4437;-78
2023/05/12 00:56:38;;;;;;;4.40;3.85;;;;;;;14.37;85.11;99182.22;411586;23;18348;-76
2023/05/12 00:56:50;;;;;;;5.97;4.10;;;;;;;14.35;85.01;99185.88;411670;23;18013;-79
2023/05/12 00:57:02;;;;;;;6.65;4.07;;;;;;;14.35;85.01;99173.63;412358;23;5627;-78
2023/05/12 00:57:14;;;;;;;6.30;3.88;;;;;;;14.37;84.78;99182.22;414973;23;4510;-78
2023/05/12 00:57:26;;;;;;;6.22;3.90;;;;;;;14.38;84.72;99181.28;414777;23;5002;-78
2023/05/12 00:57:42;;;;;;;6.82;4.00;;;;;;;14.38;84.78;99183.91;411801;23;19310;-78
2023/05/12 00:57:54;;;;;;;6.45;3.90;;;;;;;14.39;84.86;99174.31;411606;23;17946;-78
2023/05/12 00:58:07;;;;;;;5.43;3.95;;;;;;;14.37;84.79;99179.63;415939;23;4468;-78
2023/05/12 00:58:19;;;;;;;8.77;4.25;;;;;;;14.38;85.03;99180.44;412370;23;19475;-78
2023/05/12 00:58:31;;;;;;;9.13;4.28;;;;;;;14.37;85.02;99177.00;415636;23;4449;-76
2023/05/12 00:58:43;;;;;;;7.07;4.00;;;;;;;14.38;85.11;99177.84;412018;23;18438;-78
2023/05/12 00:58:55;;;;;;;4.90;3.92;;;;;;;14.38;84.91;99183.91;415834;23;4720;-79
2023/05/12 00:59:07;;;;;;;5.63;4.30;;;;;;;14.39;84.99;99185.59;412487;23;9896;-79
2023/05/12 00:59:19;;;;;;;4.93;4.40;;;;;;;14.35;85.12;99184.09;415303;23;5209;-79
2023/05/12 00:59:31;;;;;;;5.35;4.22;;;;;;;14.37;85.07;99177.00;415012;23;5133;-79
2023/05/12 00:59:43;;;;;;;6.82;4.35;;;;;;;14.36;84.92;99179.69;409998;23;18580;-79